Time;durP1;ratioP1;P1;durP2;ratioP2;P2;SDS_P1;SDS_P2;PMS_P1;PMS_P2;Temp;Humidity;BMP_temperature;BMP_pressure;BME280_temperature;BME280_humidity;BME280_pressure;Samples;Min_cycle;Max_cycle;Signal;HPM_P1;HPM_P2
2022/03/20 00:02:13;;;;;;;32.92;16.92;;;;;;;7.62;53.41;102964.91;5089178;28;20131;-73
2022/03/20 00:04:40;;;;;;;35.08;17.65;;;;;;;7.60;53.62;102958.09;5090133;28;20052;-74
2022/03/20 00:07:11;;;;;;;33.70;19.40;;;;;;;7.58;53.49;102950.16;5090713;28;20154;-75
2022/03/20 00:09:38;;;;;;;33.25;17.33;;;;;;;7.54;53.68;102942.84;5091538;28;20083;-74
2022/03/20 00:12:05;;;;;;;35.05;16.67;;;;;;;7.48;53.45;102936.69;5090017;28;20475;-74
2022/03/20 00:14:32;;;;;;;34.00;17.17;;;;;;;7.46;53.53;102946.41;5090289;28;20075;-77
2022/03/20 00:16:58;;;;;;;32.42;17.45;;;;;;;7.42;53.61;102935.22;5090820;28;20140;-75
2022/03/20 00:19:26;;;;;;;34.25;16.70;;;;;;;7.39;53.39;102935.06;5090019;28;20536;-75
2022/03/20 00:21:52;;;;;;;20.98;8.57;;;;;;;7.37;53.30;102929.06;5088617;28;20154;-75
2022/03/20 00:24:20;;;;;;;34.00;18.65;;;;;;;7.37;52.83;102934.56;5089461;28;20052;-74
2022/03/20 00:26:48;;;;;;;31.60;16.08;;;;;;;7.34;53.17;102932.44;5088502;28;20087;-74
2022/03/20 00:29:15;;;;;;;35.75;18.67;;;;;;;7.29;52.85;102927.13;5087936;28;20048;-75
2022/03/20 00:31:41;;;;;;;27.30;13.00;;;;;;;7.25;53.11;102917.84;5088844;28;20039;-75
2022/03/20 00:34:09;;;;;;;32.75;16.13;;;;;;;7.24;52.92;102913.47;5081458;28;20056;-74
2022/03/20 00:36:36;;;;;;;31.58;15.90;;;;;;;7.20;52.86;102910.56;5088621;28;20052;-73
2022/03/20 00:39:02;;;;;;;33.55;16.63;;;;;;;7.14;52.63;102911.03;5088745;28;20135;-72
2022/03/20 00:41:29;;;;;;;13.13;6.80;;;;;;;7.12;53.14;102910.56;5087986;28;20804;-72
2022/03/20 00:43:55;;;;;;;29.55;14.68;;;;;;;7.09;53.03;102912.00;5087898;28;20155;-72
2022/03/20 00:46:22;;;;;;;37.70;16.58;;;;;;;7.05;52.73;102899.19;5087452;28;20058;-73
2022/03/20 00:48:48;;;;;;;24.65;11.93;;;;;;;7.05;53.31;102902.75;5089253;28;20055;-72
2022/03/20 00:51:15;;;;;;;32.95;15.82;;;;;;;7.04;53.00;102900.31;5087556;28;20052;-72
2022/03/20 00:53:41;;;;;;;28.88;15.95;;;;;;;6.96;53.48;102893.66;5087214;28;20432;-73
2022/03/20 00:56:08;;;;;;;34.72;17.25;;;;;;;6.92;53.96;102891.91;5087430;28;20653;-73
2022/03/20 00:58:34;;;;;;;34.60;17.90;;;;;;;6.83;54.04;102883.63;5088577;28;20102;-73
2022/03/20 01:01:02;;;;;;;18.55;7.32;;;;;;;6.81;54.46;102879.53;5087886;28;20466;-73
2022/03/20 01:03:29;;;;;;;31.95;15.93;;;;;;;6.79;54.72;102876.31;5088491;28;20411;-72
2022/03/20 01:05:57;;;;;;;28.98;14.30;;;;;;;6.72;55.46;102875.97;5087706;28;20459;-74
2022/03/20 01:08:24;;;;;;;35.38;18.50;;;;;;;6.70;55.28;102876.28;5087971;28;20054;-73
2022/03/20 01:10:50;;;;;;;38.47;19.52;;;;;;;6.64;55.74;102874.81;5088406;28;20127;-72
2022/03/20 01:13:17;;;;;;;34.60;15.98;;;;;;;6.60;56.40;102865.59;5086128;28;20846;-74
2022/03/20 01:15:43;;;;;;;34.92;19.30;;;;;;;6.56;56.36;102866.53;5088210;28;20148;-73
2022/03/20 01:18:10;;;;;;;33.72;18.13;;;;;;;6.49;57.34;102855.19;5087935;28;20044;-72
2022/03/20 01:20:36;;;;;;;32.60;16.73;;;;;;;6.47;57.03;102855.50;5087210;28;20179;-75
2022/03/20 01:23:03;;;;;;;27.55;13.25;;;;;;;6.45;57.60;102862.47;5087823;28;20474;-73
2022/03/20 01:25:30;;;;;;;32.65;16.40;;;;;;;6.39;57.61;102847.22;5087145;28;20051;-72
2022/03/20 01:27:57;;;;;;;33.72;18.15;;;;;;;6.36;58.01;102851.41;5084294;28;20489;-74
2022/03/20 01:30:23;;;;;;;27.13;9.50;;;;;;;6.30;58.75;102843.63;5087902;28;20051;-72
2022/03/20 01:32:50;;;;;;;32.50;17.67;;;;;;;6.26;58.82;102837.13;5085403;28;20056;-72
2022/03/20 01:35:17;;;;;;;15.65;6.72;;;;;;;6.26;58.52;102835.22;5086639;28;20160;-73
2022/03/20 01:37:44;;;;;;;36.15;19.40;;;;;;;6.25;58.63;102830.03;5087294;28;20044;-73
2022/03/20 01:40:10;;;;;;;40.90;18.88;;;;;;;6.23;58.00;102821.28;5065952;28;20076;-73
2022/03/20 01:42:40;;;;;;;38.17;17.50;;;;;;;6.20;57.82;102816.41;5078621;28;20139;-73
2022/03/20 01:45:14;;;;;;;34.60;15.98;;;;;;;6.14;58.27;102809.44;5088274;28;20377;-73
2022/03/20 01:47:40;;;;;;;34.75;17.50;;;;;;;6.13;58.10;102805.88;5085961;28;20048;-72
2022/03/20 01:50:07;;;;;;;36.40;18.83;;;;;;;6.10;58.17;102808.44;5074175;28;20539;-73
2022/03/20 01:52:34;;;;;;;26.98;16.05;;;;;;;6.08;58.58;102795.03;5087143;28;20079;-75
2022/03/20 01:55:01;;;;;;;30.27;12.95;;;;;;;6.06;58.24;102800.03;5087515;28;20512;-73
2022/03/20 01:57:29;;;;;;;40.33;19.80;;;;;;;6.09;57.58;102790.34;5087332;28;20131;-74
2022/03/20 01:59:56;;;;;;;36.53;20.20;;;;;;;6.08;57.98;102791.47;5086800;28;21148;-74
2022/03/20 02:02:22;;;;;;;37.08;19.67;;;;;;;6.03;57.76;102775.91;5087411;28;20078;-74
2022/03/20 02:04:49;;;;;;;38.58;19.55;;;;;;;6.03;57.86;102788.84;5085481;28;20464;-74
2022/03/20 02:07:16;;;;;;;40.85;20.13;;;;;;;6.02;57.66;102787.22;5087306;28;20127;-73
2022/03/20 02:09:43;;;;;;;33.75;20.10;;;;;;;6.02;57.27;102776.25;5087681;28;20478;-74
2022/03/20 02:12:11;;;;;;;36.88;18.10;;;;;;;6.01;57.79;102783.66;5087056;28;20139;-73
2022/03/20 02:14:38;;;;;;;43.58;20.73;;;;;;;5.99;57.38;102772.19;5087675;28;20178;-73
2022/03/20 02:17:06;;;;;;;21.48;11.82;;;;;;;5.99;57.49;102771.38;5084005;28;20082;-74
2022/03/20 02:19:36;;;;;;;41.35;17.60;;;;;;;6.00;57.74;102762.81;5086059;28;20129;-73
2022/03/20 02:22:04;;;;;;;35.95;18.38;;;;;;;6.01;57.46;102758.94;5087025;28;20084;-74
2022/03/20 02:24:48;;;;;;;40.25;18.17;;;;;;;5.97;57.35;102757.16;5085759;28;20052;-74
2022/03/20 02:27:18;;;;;;;23.75;12.85;;;;;;;5.99;57.33;102757.63;5073178;28;20040;-72
2022/03/20 02:29:52;;;;;;;34.47;20.27;;;;;;;5.99;57.15;102752.13;5085380;28;20044;-73
2022/03/20 02:32:23;;;;;;;37.95;19.00;;;;;;;5.98;57.36;102748.59;5086514;28;20123;-73
2022/03/20 02:34:50;;;;;;;32.63;16.85;;;;;;;5.97;57.31;102732.44;5086804;28;20121;-75
2022/03/20 02:37:19;;;;;;;32.55;14.80;;;;;;;5.96;57.23;102717.03;5088598;28;20512;-73
2022/03/20 02:39:47;;;;;;;33.70;16.50;;;;;;;5.95;56.85;102723.69;5091453;28;20411;-73
2022/03/20 02:42:15;;;;;;;26.65;12.57;;;;;;;5.95;56.92;102718.19;5090523;28;20150;-74
2022/03/20 02:45:03;;;;;;;39.47;19.95;;;;;;;5.94;56.99;102717.34;5091854;28;20051;-73
2022/03/20 02:47:32;;;;;;;38.13;18.55;;;;;;;5.93;56.74;102720.44;5089482;28;20052;-73
2022/03/20 02:50:03;;;;;;;22.58;9.25;;;;;;;5.92;56.98;102721.56;5091146;28;20048;-73
2022/03/20 02:52:52;;;;;;;36.97;20.05;;;;;;;5.93;56.68;102718.50;5089176;28;20071;-76
2022/03/20 02:55:24;;;;;;;36.20;18.85;;;;;;;5.93;56.54;102706.69;5087491;28;20048;-73
2022/03/20 02:57:53;;;;;;;36.45;19.90;;;;;;;5.93;56.37;102713.00;5089416;28;20067;-73
2022/03/20 03:00:22;;;;;;;34.55;18.35;;;;;;;5.93;56.21;102714.94;5090758;28;20123;-72
2022/03/20 03:02:50;;;;;;;40.15;19.00;;;;;;;5.90;56.13;102694.41;5090294;28;20083;-73
2022/03/20 03:05:19;;;;;;;35.80;17.42;;;;;;;5.95;55.72;102701.69;5089296;28;20052;-74
2022/03/20 03:13:19;;;;;;;33.33;16.73;;;;;;;6.00;54.44;102691.38;5086876;28;20071;-74
2022/03/20 03:15:46;;;;;;;37.13;18.63;;;;;;;6.00;54.15;102696.06;5090041;28;20419;-74
2022/03/20 03:18:13;;;;;;;32.05;17.05;;;;;;;6.03;54.19;102695.41;5089089;28;20085;-72
2022/03/20 03:20:40;;;;;;;16.33;6.90;;;;;;;5.99;53.50;102698.00;5090000;28;20139;-74
2022/03/20 03:23:06;;;;;;;33.47;17.30;;;;;;;6.08;53.26;102689.78;5090060;28;20094;-72
2022/03/20 03:25:36;;;;;;;35.55;16.42;;;;;;;6.10;52.86;102680.06;5085186;28;20587;-73
2022/03/20 03:28:02;;;;;;;34.30;17.42;;;;;;;6.10;52.82;102676.50;5088024;28;20052;-72
2022/03/20 03:30:29;;;;;;;34.10;16.73;;;;;;;6.10;52.63;102666.34;5089106;28;20047;-73
2022/03/20 03:32:56;;;;;;;37.35;17.13;;;;;;;6.12;52.38;102658.59;5089506;28;20062;-72
2022/03/20 03:38:11;;;;;;;27.77;14.13;;;;;;;6.17;51.74;102654.88;5089160;28;20051;-73
2022/03/20 03:40:39;;;;;;;32.90;15.98;;;;;;;6.18;51.01;102654.53;5089429;28;20150;-75
2022/03/20 03:43:06;;;;;;;31.45;16.98;;;;;;;6.22;50.73;102651.97;5089151;28;20135;-75
2022/03/20 03:45:41;;;;;;;34.17;16.23;;;;;;;6.22;50.46;102646.47;5089994;28;20067;-73
2022/03/20 03:48:09;;;;;;;35.00;18.40;;;;;;;6.23;50.44;102637.06;5089401;28;20134;-74
2022/03/20 03:50:37;;;;;;;33.88;18.55;;;;;;;6.24;50.11;102641.47;5088974;28;20044;-72
2022/03/20 03:53:05;;;;;;;31.58;14.90;;;;;;;6.25;50.22;102635.66;5089849;28;20098;-73
2022/03/20 03:55:35;;;;;;;38.83;17.50;;;;;;;6.27;49.70;102638.03;5089367;28;20101;-74
2022/03/20 03:58:03;;;;;;;31.15;16.05;;;;;;;6.28;49.81;102631.44;5085436;28;20162;-73
2022/03/20 04:00:32;;;;;;;32.78;18.88;;;;;;;6.23;49.25;102631.59;5088609;28;20054;-73
2022/03/20 04:03:00;;;;;;;25.90;12.38;;;;;;;6.27;49.04;102638.88;5089314;28;20083;-73
2022/03/20 04:05:30;;;;;;;34.75;17.92;;;;;;;6.25;48.63;102621.09;5089649;28;20764;-74
2022/03/20 04:07:57;;;;;;;27.92;13.85;;;;;;;6.27;48.57;102624.31;5091046;28;20058;-74
2022/03/20 04:10:24;;;;;;;36.58;17.80;;;;;;;6.29;48.38;102613.81;5088662;28;20052;-73
2022/03/20 04:12:51;;;;;;;35.00;16.48;;;;;;;6.26;48.29;102614.44;5088736;28;20048;-72
2022/03/20 04:15:24;;;;;;;33.10;18.00;;;;;;;6.30;48.43;102605.22;5089073;28;20080;-73
2022/03/20 04:17:51;;;;;;;35.58;16.40;;;;;;;6.29;47.88;102602.81;5087742;28;20059;-72
2022/03/20 04:20:19;;;;;;;33.05;19.13;;;;;;;6.30;48.00;102601.66;5074083;28;20663;-72
2022/03/20 04:25:33;;;;;;;28.10;14.32;;;;;;;6.29;47.25;102602.81;5089049;28;20048;-72
2022/03/20 04:27:59;;;;;;;19.65;9.80;;;;;;;6.30;46.86;102591.50;5080602;28;20641;-72
2022/03/20 04:30:26;;;;;;;28.50;14.35;;;;;;;6.31;47.05;102597.81;5088481;28;20058;-73
2022/03/20 04:32:54;;;;;;;32.83;16.95;;;;;;;6.31;47.24;102595.84;5088002;28;20147;-73
2022/03/20 04:35:25;;;;;;;31.95;15.90;;;;;;;6.30;47.17;102583.25;5089066;28;20138;-73
2022/03/20 04:37:53;;;;;;;35.55;17.63;;;;;;;6.32;47.27;102586.50;5087820;28;20044;-72
2022/03/20 04:40:20;;;;;;;23.45;10.73;;;;;;;6.28;46.99;102595.69;5087052;28;20052;-73
2022/03/20 04:42:47;;;;;;;35.70;20.48;;;;;;;6.29;47.37;102592.63;5088983;28;20634;-73
2022/03/20 04:45:14;;;;;;;36.15;17.50;;;;;;;6.25;46.48;102588.09;5088642;28;20517;-73
2022/03/20 04:58:43;;;;;;;36.95;16.88;;;;;;;6.23;46.54;102584.84;5088230;28;20075;-74
2022/03/20 05:01:10;;;;;;;33.20;17.63;;;;;;;6.19;46.48;102581.94;5087680;28;20070;-73
2022/03/20 05:03:37;;;;;;;33.53;17.60;;;;;;;6.20;46.04;102574.50;5088620;28;20072;-74
2022/03/20 05:06:05;;;;;;;34.83;16.38;;;;;;;6.18;46.26;102569.31;5088016;28;20134;-74
2022/03/20 05:08:33;;;;;;;32.67;16.65;;;;;;;6.19;46.10;102565.47;5090164;28;20048;-73
2022/03/20 05:13:51;;;;;;;34.75;16.85;;;;;;;6.16;46.05;102570.78;5072392;28;20058;-73
2022/03/20 05:16:18;;;;;;;21.20;10.35;;;;;;;6.12;45.97;102564.31;5088671;28;20056;-74
2022/03/20 05:18:45;;;;;;;28.25;15.88;;;;;;;6.11;45.67;102560.75;5088982;28;20062;-72
2022/03/20 05:21:11;;;;;;;35.17;17.00;;;;;;;6.08;45.64;102555.09;5086960;28;20512;-73
2022/03/20 05:23:39;;;;;;;28.42;15.15;;;;;;;6.07;45.53;102567.25;5086552;28;20146;-73
2022/03/20 05:26:06;;;;;;;32.30;15.80;;;;;;;6.02;45.63;102564.63;5086935;28;20044;-73
2022/03/20 05:28:32;;;;;;;34.13;16.23;;;;;;;5.97;45.46;102564.81;5085417;28;20087;-73
2022/03/20 05:30:59;;;;;;;32.90;16.73;;;;;;;5.95;45.49;102565.13;5084388;28;20054;-73
2022/03/20 05:33:26;;;;;;;29.02;16.27;;;;;;;5.94;45.88;102565.44;5088731;28;20055;-73
2022/03/20 05:35:52;;;;;;;34.38;16.45;;;;;;;5.88;45.90;102562.03;5087450;28;20134;-74
2022/03/20 05:38:19;;;;;;;31.02;12.77;;;;;;;5.81;45.47;102569.09;5085939;28;20063;-73
2022/03/20 05:40:46;;;;;;;32.17;14.75;;;;;;;5.78;45.74;102558.75;5086772;28;20067;-73
2022/03/20 05:43:13;;;;;;;32.40;16.42;;;;;;;5.75;45.79;102565.69;5087534;28;20051;-73
2022/03/20 05:45:40;;;;;;;29.48;15.35;;;;;;;5.68;45.44;102551.63;5088414;28;20515;-73
2022/03/20 05:48:10;;;;;;;34.53;17.20;;;;;;;5.72;45.86;102549.03;5088345;28;20133;-74
2022/03/20 05:50:40;;;;;;;23.77;11.75;;;;;;;5.66;45.61;102544.81;5085622;28;20848;-73
2022/03/20 05:53:07;;;;;;;36.13;18.88;;;;;;;5.62;45.85;102535.59;5088813;28;20062;-74
2022/03/20 05:58:18;;;;;;;34.60;17.23;;;;;;;5.61;45.94;102540.31;5088366;28;20120;-73
2022/03/20 06:00:45;;;;;;;31.90;16.33;;;;;;;5.59;45.83;102539.00;5088386;28;20058;-74
2022/03/20 06:03:12;;;;;;;31.15;16.70;;;;;;;5.57;46.03;102549.50;5087823;28;20087;-73
2022/03/20 06:05:40;;;;;;;31.13;16.50;;;;;;;5.53;45.76;102537.56;5088708;28;20047;-73
2022/03/20 06:08:06;;;;;;;33.22;15.02;;;;;;;5.56;45.76;102517.69;5087310;28;20071;-73
2022/03/20 06:10:34;;;;;;;28.95;12.48;;;;;;;5.54;45.65;102514.44;5088222;28;20228;-73
2022/03/20 06:13:05;;;;;;;29.52;14.50;;;;;;;5.49;45.70;102512.66;5085721;28;20042;-73
2022/03/20 06:15:32;;;;;;;36.13;18.23;;;;;;;5.56;45.77;102512.19;5086558;28;20056;-75
2022/03/20 06:18:04;;;;;;;22.80;12.80;;;;;;;5.53;45.68;102508.13;5086123;28;20482;-74
2022/03/20 06:20:34;;;;;;;44.03;16.73;;;;;;;5.56;45.89;102523.19;5086862;28;20048;-70
2022/03/20 06:23:02;;;;;;;33.58;15.88;;;;;;;5.53;45.64;102521.06;5087333;28;20056;-73
2022/03/20 06:25:29;;;;;;;32.10;17.50;;;;;;;5.55;45.37;102518.81;5085777;28;20587;-74
2022/03/20 06:27:59;;;;;;;27.35;13.20;;;;;;;5.57;45.41;102524.78;5083333;28;20055;-74
2022/03/20 06:30:26;;;;;;;32.83;16.13;;;;;;;5.58;45.52;102532.72;5087118;28;20040;-73
2022/03/20 06:32:55;;;;;;;30.08;14.45;;;;;;;5.61;45.49;102520.28;5089455;28;20048;-74
2022/03/20 06:35:21;;;;;;;31.55;18.48;;;;;;;5.64;45.37;102514.97;5084391;28;20055;-73
2022/03/20 06:37:53;;;;;;;31.83;14.13;;;;;;;5.67;45.46;102508.81;5087644;28;20132;-74
2022/03/20 06:40:21;;;;;;;25.67;13.25;;;;;;;5.72;45.34;102510.59;5084099;28;20043;-73
2022/03/20 06:42:48;;;;;;;21.00;7.93;;;;;;;5.67;44.86;102486.03;5088019;28;20058;-73
2022/03/20 06:45:15;;;;;;;26.08;12.55;;;;;;;5.76;45.05;102517.06;5087130;28;20501;-75
2022/03/20 06:47:43;;;;;;;34.90;17.17;;;;;;;5.81;44.78;102536.13;5086389;28;20079;-73
2022/03/20 06:50:13;;;;;;;33.05;16.80;;;;;;;5.85;44.79;102548.13;5084331;28;20485;-75
2022/03/20 06:52:40;;;;;;;36.90;17.90;;;;;;;5.86;44.94;102542.31;5086660;28;20146;-73
2022/03/20 06:55:10;;;;;;;30.88;14.52;;;;;;;5.91;44.94;102549.59;5087631;28;20151;-75
2022/03/20 06:57:40;;;;;;;19.98;8.27;;;;;;;5.92;44.83;102545.72;5082332;28;20060;-74
2022/03/20 07:00:08;;;;;;;32.47;14.75;;;;;;;5.98;44.66;102548.00;5088605;28;20048;-75
2022/03/20 07:02:34;;;;;;;24.85;11.38;;;;;;;5.99;44.99;102546.03;5087099;28;20131;-74
2022/03/20 07:05:02;;;;;;;35.35;16.30;;;;;;;6.04;44.57;102546.69;5085616;28;20052;-73
2022/03/20 07:07:29;;;;;;;32.72;16.85;;;;;;;6.09;44.47;102552.03;5087339;28;20036;-73
2022/03/20 07:09:56;;;;;;;34.60;17.10;;;;;;;6.14;44.66;102556.56;5085373;28;20044;-73
2022/03/20 07:12:22;;;;;;;35.83;18.58;;;;;;;6.17;44.61;102550.44;5084393;28;20416;-73
2022/03/20 07:14:49;;;;;;;32.65;16.77;;;;;;;6.19;44.41;102551.72;5086812;28;20090;-73
2022/03/20 07:17:18;;;;;;;26.20;12.55;;;;;;;6.27;44.36;102550.91;5087409;28;20044;-73
2022/03/20 07:19:45;;;;;;;34.10;17.70;;;;;;;6.31;44.47;102531.81;5096236;28;20044;-73
2022/03/20 07:22:14;;;;;;;30.70;15.55;;;;;;;6.36;44.05;102543.47;5084361;28;20048;-74
2022/03/20 07:24:47;;;;;;;35.05;17.27;;;;;;;6.41;44.12;102539.75;5086250;28;20056;-74
2022/03/20 07:29:58;;;;;;;33.55;18.35;;;;;;;6.49;43.55;102527.91;5089679;28;20089;-76
2022/03/20 07:32:25;;;;;;;35.63;17.42;;;;;;;6.55;43.67;102534.84;5094851;28;20053;-75
2022/03/20 07:34:52;;;;;;;33.55;16.90;;;;;;;6.61;43.79;102522.56;5095423;28;20063;-75
2022/03/20 07:37:21;;;;;;;33.88;17.88;;;;;;;6.66;43.89;102527.88;5089516;28;20168;-75
2022/03/20 07:39:50;;;;;;;30.45;13.20;;;;;;;6.72;43.57;102519.09;5088181;28;20109;-77
2022/03/20 07:42:18;;;;;;;34.95;17.02;;;;;;;6.76;43.80;102525.59;5089529;28;20054;-76
2022/03/20 07:44:45;;;;;;;32.67;16.98;;;;;;;6.82;43.69;102518.75;5089957;28;20052;-76
2022/03/20 07:47:20;;;;;;;29.38;14.38;;;;;;;6.87;43.42;102510.34;5089512;28;20062;-77
2022/03/20 07:49:48;;;;;;;24.63;11.25;;;;;;;6.89;43.36;102507.25;5090514;28;20568;-76
2022/03/20 07:52:15;;;;;;;34.35;17.27;;;;;;;6.92;43.53;102499.13;5089460;28;20059;-75
2022/03/20 07:54:42;;;;;;;32.13;17.63;;;;;;;6.94;43.13;102499.63;5087079;28;20131;-75
2022/03/20 07:57:09;;;;;;;31.02;15.18;;;;;;;6.98;43.33;102492.31;5088707;28;20078;-74
2022/03/20 07:59:35;;;;;;;35.88;18.42;;;;;;;7.02;43.26;102496.00;5088253;28;20201;-75
2022/03/20 08:02:03;;;;;;;32.58;13.93;;;;;;;7.08;43.23;102483.69;5093319;28;20104;-74
2022/03/20 08:04:31;;;;;;;22.90;11.45;;;;;;;7.09;43.11;102474.28;5091405;28;20052;-74
2022/03/20 08:06:58;;;;;;;35.75;15.85;;;;;;;7.11;43.18;102463.75;5088977;28;20055;-75
2022/03/20 08:09:27;;;;;;;34.75;17.40;;;;;;;7.15;43.27;102461.13;5092204;28;20044;-75
2022/03/20 08:11:55;;;;;;;37.85;19.20;;;;;;;7.10;42.94;102466.84;5088006;28;20052;-74
2022/03/20 08:14:23;;;;;;;35.65;17.52;;;;;;;7.09;43.19;102465.25;5087056;28;20439;-73
2022/03/20 08:16:51;;;;;;;34.42;16.42;;;;;;;7.03;43.53;102458.31;5077317;28;20498;-76
2022/03/20 08:19:19;;;;;;;36.28;18.67;;;;;;;7.04;43.40;102462.66;5082281;28;20111;-75
2022/03/20 08:21:48;;;;;;;34.13;16.00;;;;;;;7.03;43.69;102452.78;5089620;28;20055;-74
2022/03/20 08:24:14;;;;;;;32.42;15.45;;;;;;;7.00;43.94;102448.75;5090350;28;20044;-76
2022/03/20 08:26:41;;;;;;;39.10;19.75;;;;;;;7.03;43.99;102439.84;5089223;28;20476;-75
2022/03/20 08:29:10;;;;;;;39.15;22.02;;;;;;;6.97;44.10;102427.41;5088627;28;20400;-75
2022/03/20 08:31:37;;;;;;;39.58;19.42;;;;;;;7.05;43.89;102425.72;5086015;28;20570;-76
2022/03/20 08:34:05;;;;;;;34.95;16.80;;;;;;;7.10;44.25;102429.13;5089514;28;20114;-75
2022/03/20 08:36:34;;;;;;;26.77;14.75;;;;;;;7.16;44.82;102435.25;5088663;28;20087;-73
2022/03/20 08:39:00;;;;;;;39.75;18.75;;;;;;;7.24;44.50;102431.63;5089150;28;20056;-75
2022/03/20 08:41:27;;;;;;;26.10;14.27;;;;;;;7.26;44.06;102421.09;5088487;28;20052;-77
2022/03/20 08:43:54;;;;;;;39.15;18.23;;;;;;;7.34;44.02;102425.72;5088930;28;20048;-75
2022/03/20 08:46:20;;;;;;;36.45;17.85;;;;;;;7.44;44.34;102425.31;5088825;28;20052;-74
2022/03/20 08:48:47;;;;;;;37.90;20.00;;;;;;;7.54;44.26;102422.19;5088810;28;20122;-75
2022/03/20 08:51:13;;;;;;;34.50;17.20;;;;;;;7.60;44.01;102407.06;5086892;28;20052;-74
2022/03/20 08:53:40;;;;;;;36.58;18.08;;;;;;;7.76;44.28;102408.84;5084639;28;20200;-75
2022/03/20 08:56:06;;;;;;;39.13;17.60;;;;;;;7.82;44.24;102395.69;5081887;28;20178;-75
2022/03/20 08:58:33;;;;;;;42.22;22.25;;;;;;;7.89;44.30;102385.72;5081761;28;20154;-78
2022/03/20 09:01:00;;;;;;;33.80;17.48;;;;;;;7.99;44.08;102376.22;5081179;28;20523;-75
2022/03/20 09:03:26;;;;;;;37.80;20.60;;;;;;;8.07;43.70;102372.56;5077459;28;20055;-74
2022/03/20 09:05:53;;;;;;;38.95;23.27;;;;;;;8.21;43.75;102369.50;5085858;28;20059;-74
2022/03/20 09:08:20;;;;;;;31.92;14.13;;;;;;;8.32;43.87;102352.19;5084591;28;20132;-74
2022/03/20 09:10:51;;;;;;;33.10;17.15;;;;;;;8.52;43.99;102351.31;5094365;28;20059;-74
2022/03/20 09:13:18;;;;;;;35.55;18.75;;;;;;;8.63;43.82;102340.59;5081499;28;20974;-74
2022/03/20 09:15:45;;;;;;;37.42;21.67;;;;;;;8.72;43.18;102353.16;5065697;28;20052;-75
2022/03/20 09:20:56;;;;;;;29.88;14.57;;;;;;;9.03;43.23;102372.69;5088836;28;20044;-77
2022/03/20 09:23:23;;;;;;;31.58;16.20;;;;;;;9.16;42.86;102373.47;5083670;28;20500;-74
2022/03/20 09:25:50;;;;;;;39.17;19.08;;;;;;;9.28;43.06;102379.75;5087636;28;20429;-75
2022/03/20 09:28:16;;;;;;;41.92;23.38;;;;;;;9.40;42.91;102378.94;5090463;28;20062;-75
2022/03/20 09:30:43;;;;;;;39.63;20.38;;;;;;;9.47;42.71;102374.44;5085221;28;20134;-74
2022/03/20 09:33:10;;;;;;;44.25;22.30;;;;;;;9.59;42.61;102382.66;5081367;28;20054;-74
2022/03/20 09:35:38;;;;;;;32.92;18.55;;;;;;;9.63;42.62;102391.06;5081035;28;20059;-75
2022/03/20 09:38:09;;;;;;;38.88;20.48;;;;;;;9.63;42.07;102371.72;5076063;28;20097;-74
2022/03/20 09:40:37;;;;;;;39.08;22.50;;;;;;;9.67;42.13;102390.03;5091859;28;20500;-73
2022/03/20 09:43:06;;;;;;;41.50;18.25;;;;;;;9.73;42.54;102383.09;5098778;28;20074;-72
2022/03/20 09:45:35;;;;;;;34.28;18.63;;;;;;;9.77;42.68;102374.88;5082401;28;20060;-73
2022/03/20 09:48:04;;;;;;;37.78;19.63;;;;;;;9.84;42.77;102375.09;5083063;28;20062;-74
2022/03/20 09:50:31;;;;;;;41.30;21.77;;;;;;;9.83;42.48;102379.81;5088662;28;20507;-73
2022/03/20 09:52:58;;;;;;;41.70;22.75;;;;;;;9.86;42.63;102384.63;5075862;28;20469;-74
2022/03/20 09:55:25;;;;;;;35.60;16.42;;;;;;;9.94;42.70;102392.00;5083481;28;20084;-75
2022/03/20 09:57:56;;;;;;;43.92;25.20;;;;;;;10.05;42.72;102386.72;5082133;28;20136;-75
2022/03/20 10:00:24;;;;;;;37.90;23.00;;;;;;;10.05;42.31;102386.72;5083364;28;20071;-72
2022/03/20 10:02:51;;;;;;;40.55;24.33;;;;;;;10.21;42.65;102387.59;5071065;28;20375;-73
2022/03/20 10:05:23;;;;;;;41.10;25.80;;;;;;;10.29;41.92;102392.16;5084660;28;20532;-74
2022/03/20 10:07:50;;;;;;;29.20;14.80;;;;;;;10.39;41.99;102388.88;5087692;28;20131;-73
2022/03/20 10:10:18;;;;;;;44.58;24.10;;;;;;;10.53;41.94;102387.28;5081369;28;20074;-73
2022/03/20 10:12:49;;;;;;;41.40;22.65;;;;;;;10.70;41.97;102391.63;5087755;28;20044;-73
2022/03/20 10:15:32;;;;;;;31.85;12.52;;;;;;;10.98;41.53;102375.72;5085615;28;20131;-74
2022/03/20 10:18:05;;;;;;;37.47;20.88;;;;;;;11.27;41.66;102368.88;5081485;28;20095;-73
2022/03/20 10:20:37;;;;;;;43.25;23.80;;;;;;;11.46;41.35;102355.00;5079233;28;20155;-72
2022/03/20 10:23:26;;;;;;;38.33;22.15;;;;;;;11.63;41.06;102355.44;5080630;28;20083;-72
2022/03/20 10:25:54;;;;;;;40.33;22.08;;;;;;;11.72;40.63;102344.94;5076981;28;20058;-73
2022/03/20 10:28:21;;;;;;;45.78;24.85;;;;;;;11.87;40.48;102351.53;5081104;28;20047;-76
2022/03/20 10:31:01;;;;;;;37.20;21.40;;;;;;;11.92;40.22;102351.25;5080135;28;20147;-73
2022/03/20 10:33:27;;;;;;;43.05;24.70;;;;;;;12.05;40.61;102347.16;5082290;28;20067;-73
2022/03/20 10:36:17;;;;;;;41.28;22.77;;;;;;;12.23;40.28;102345.47;5083160;28;20048;-73
2022/03/20 10:38:46;;;;;;;38.20;23.00;;;;;;;12.43;40.70;102341.47;5085544;28;20079;-74
2022/03/20 10:41:20;;;;;;;40.42;23.15;;;;;;;12.56;40.79;102338.13;5085495;28;20523;-73
2022/03/20 10:43:48;;;;;;;40.70;24.10;;;;;;;12.69;40.41;102344.31;5085737;28;20071;-74
2022/03/20 10:46:22;;;;;;;41.60;24.48;;;;;;;12.65;39.79;102333.13;5085845;28;20532;-73
2022/03/20 10:48:52;;;;;;;43.88;19.98;;;;;;;12.61;40.11;102337.00;5083482;28;20509;-75
2022/03/20 10:51:40;;;;;;;39.70;21.88;;;;;;;12.52;40.07;102334.50;5082102;28;20131;-74
2022/03/20 10:54:22;;;;;;;43.53;25.77;;;;;;;12.51;40.64;102329.31;5085222;28;20695;-73
2022/03/20 10:56:58;;;;;;;43.90;26.05;;;;;;;12.48;40.53;102330.03;5081950;28;20114;-74
2022/03/20 10:59:27;;;;;;;37.42;21.70;;;;;;;12.53;40.64;102315.88;5085726;28;20062;-75
2022/03/20 11:01:53;;;;;;;42.35;24.23;;;;;;;12.58;40.87;102309.97;5081769;28;20052;-74
2022/03/20 11:04:20;;;;;;;40.35;22.83;;;;;;;12.66;40.65;102311.72;5090490;28;20135;-74
2022/03/20 11:06:57;;;;;;;43.75;24.75;;;;;;;12.71;40.69;102312.19;5091016;28;20063;-74
2022/03/20 11:09:23;;;;;;;47.80;25.15;;;;;;;12.74;41.15;102313.41;5086856;28;20150;-74
2022/03/20 11:11:56;;;;;;;47.20;27.58;;;;;;;12.70;40.81;102302.25;5084923;28;20035;-75
2022/03/20 11:14:25;;;;;;;40.17;22.80;;;;;;;12.76;40.98;102305.53;5091462;28;20039;-74
2022/03/20 11:17:02;;;;;;;42.90;25.60;;;;;;;12.79;40.71;102311.13;5088922;28;20052;-71
2022/03/20 11:19:30;;;;;;;44.53;24.60;;;;;;;12.92;41.36;102292.25;5089058;28;20069;-77
2022/03/20 11:22:03;;;;;;;55.28;32.03;;;;;;;13.04;41.04;102287.28;5090844;28;20080;-74
2022/03/20 11:24:30;;;;;;;47.22;27.63;;;;;;;13.14;40.72;102287.81;5083564;28;20469;-75
2022/03/20 11:27:02;;;;;;;43.72;25.88;;;;;;;13.26;40.45;102293.16;5090140;28;20091;-74
2022/03/20 11:29:34;;;;;;;46.80;24.67;;;;;;;13.27;40.66;102287.22;5086128;28;20048;-75
2022/03/20 11:32:01;;;;;;;40.17;22.95;;;;;;;13.35;40.45;102286.13;5087795;28;20568;-75
2022/03/20 11:34:30;;;;;;;45.45;26.40;;;;;;;13.39;40.38;102295.28;5090796;28;20095;-74
2022/03/20 11:36:59;;;;;;;45.50;27.27;;;;;;;13.42;39.79;102294.53;5088792;28;20048;-74
2022/03/20 11:39:26;;;;;;;47.63;26.35;;;;;;;13.43;40.24;102282.22;5090448;28;20492;-75
2022/03/20 11:42:21;;;;;;;31.20;16.23;;;;;;;13.30;40.06;102305.94;5090103;28;20052;-74
2022/03/20 11:45:00;;;;;;;46.83;28.02;;;;;;;13.28;39.75;102299.94;5081815;28;20080;-75
2022/03/20 11:47:32;;;;;;;48.30;29.90;;;;;;;13.19;40.12;102290.28;5090483;28;20678;-75
2022/03/20 11:50:17;;;;;;;44.72;28.38;;;;;;;13.11;40.49;102292.16;5090693;28;20136;-75
2022/03/20 11:53:03;;;;;;;45.90;26.27;;;;;;;13.07;40.51;102284.94;5090088;28;20060;-76
2022/03/20 11:55:53;;;;;;;41.78;25.77;;;;;;;13.07;40.50;102282.16;5083323;28;20134;-75
2022/03/20 11:58:24;;;;;;;50.50;27.33;;;;;;;13.06;40.21;102295.25;5086031;28;20071;-75